sensor_id;sensor_type;location;lat;lon;timestamp;P1;durP1;ratioP1;P2;durP2;ratioP2
73100;SDS011;61288;53.446;-2.266;2023-08-07T00:00:33;10.00;;;2.65;;
73100;SDS011;61288;53.446;-2.266;2023-08-07T00:02:59;6.53;;;1.80;;
73100;SDS011;61288;53.446;-2.266;2023-08-07T00:05:24;6.63;;;2.00;;
73100;SDS011;61288;53.446;-2.266;2023-08-07T00:07:53;6.40;;;1.85;;
73100;SDS011;61288;53.446;-2.266;2023-08-07T00:10:18;6.65;;;2.00;;
73100;SDS011;61288;53.446;-2.266;2023-08-07T00:12:44;6.68;;;1.80;;
73100;SDS011;61288;53.446;-2.266;2023-08-07T00:15:09;5.15;;;1.83;;
73100;SDS011;61288;53.446;-2.266;2023-08-07T00:17:36;7.07;;;1.90;;
73100;SDS011;61288;53.446;-2.266;2023-08-07T00:20:02;7.18;;;2.00;;
73100;SDS011;61288;53.446;-2.266;2023-08-07T00:22:29;5.63;;;1.88;;
73100;SDS011;61288;53.446;-2.266;2023-08-07T00:24:54;6.35;;;1.77;;
73100;SDS011;61288;53.446;-2.266;2023-08-07T00:27:20;7.13;;;1.90;;
73100;SDS011;61288;53.446;-2.266;2023-08-07T00:29:46;8.02;;;1.98;;
73100;SDS011;61288;53.446;-2.266;2023-08-07T00:32:12;5.70;;;1.92;;
73100;SDS011;61288;53.446;-2.266;2023-08-07T00:34:37;6.80;;;2.20;;
73100;SDS011;61288;53.446;-2.266;2023-08-07T00:37:03;7.15;;;2.13;;
73100;SDS011;61288;53.446;-2.266;2023-08-07T00:39:29;8.15;;;1.95;;
73100;SDS011;61288;53.446;-2.266;2023-08-07T00:41:54;6.55;;;2.03;;
73100;SDS011;61288;53.446;-2.266;2023-08-07T00:44:20;7.97;;;2.17;;
73100;SDS011;61288;53.446;-2.266;2023-08-07T00:46:45;8.98;;;2.40;;
73100;SDS011;61288;53.446;-2.266;2023-08-07T00:49:12;7.05;;;2.15;;
73100;SDS011;61288;53.446;-2.266;2023-08-07T00:51:39;6.50;;;2.13;;
73100;SDS011;61288;53.446;-2.266;2023-08-07T00:54:05;9.00;;;2.50;;
73100;SDS011;61288;53.446;-2.266;2023-08-07T00:56:32;7.88;;;2.03;;
73100;SDS011;61288;53.446;-2.266;2023-08-07T00:58:59;7.22;;;1.98;;
73100;SDS011;61288;53.446;-2.266;2023-08-07T01:01:26;7.65;;;2.20;;
73100;SDS011;61288;53.446;-2.266;2023-08-07T01:03:52;7.78;;;1.98;;
73100;SDS011;61288;53.446;-2.266;2023-08-07T01:06:18;6.82;;;2.10;;
73100;SDS011;61288;53.446;-2.266;2023-08-07T01:08:44;9.68;;;2.45;;
73100;SDS011;61288;53.446;-2.266;2023-08-07T01:14:10;6.82;;;1.92;;
73100;SDS011;61288;53.446;-2.266;2023-08-07T01:16:47;8.27;;;2.20;;
73100;SDS011;61288;53.446;-2.266;2023-08-07T01:19:24;7.22;;;1.90;;
73100;SDS011;61288;53.446;-2.266;2023-08-07T01:22:10;8.70;;;2.28;;
73100;SDS011;61288;53.446;-2.266;2023-08-07T01:24:41;8.40;;;2.20;;
73100;SDS011;61288;53.446;-2.266;2023-08-07T01:35:05;8.90;;;2.50;;
73100;SDS011;61288;53.446;-2.266;2023-08-07T01:37:33;6.28;;;2.00;;
73100;SDS011;61288;53.446;-2.266;2023-08-07T01:40:02;7.78;;;2.25;;
73100;SDS011;61288;53.446;-2.266;2023-08-07T01:42:29;8.13;;;1.90;;
73100;SDS011;61288;53.446;-2.266;2023-08-07T01:44:55;9.45;;;2.80;;
73100;SDS011;61288;53.446;-2.266;2023-08-07T01:47:21;5.45;;;1.92;;
73100;SDS011;61288;53.446;-2.266;2023-08-07T01:49:46;9.88;;;2.70;;
73100;SDS011;61288;53.446;-2.266;2023-08-07T01:52:12;9.77;;;2.72;;
73100;SDS011;61288;53.446;-2.266;2023-08-07T01:54:38;8.93;;;2.70;;
73100;SDS011;61288;53.446;-2.266;2023-08-07T01:57:03;7.75;;;2.53;;
73100;SDS011;61288;53.446;-2.266;2023-08-07T01:59:29;8.32;;;2.65;;
73100;SDS011;61288;53.446;-2.266;2023-08-07T02:01:55;10.80;;;2.80;;
73100;SDS011;61288;53.446;-2.266;2023-08-07T02:04:20;8.23;;;2.67;;
73100;SDS011;61288;53.446;-2.266;2023-08-07T02:06:45;7.85;;;2.47;;
73100;SDS011;61288;53.446;-2.266;2023-08-07T02:09:11;10.75;;;2.83;;
73100;SDS011;61288;53.446;-2.266;2023-08-07T02:11:36;9.27;;;2.63;;
73100;SDS011;61288;53.446;-2.266;2023-08-07T02:14:02;11.27;;;3.25;;
73100;SDS011;61288;53.446;-2.266;2023-08-07T02:16:28;11.05;;;2.90;;
73100;SDS011;61288;53.446;-2.266;2023-08-07T02:18:54;9.57;;;2.47;;
73100;SDS011;61288;53.446;-2.266;2023-08-07T02:21:20;7.93;;;2.30;;
73100;SDS011;61288;53.446;-2.266;2023-08-07T02:23:45;7.60;;;2.40;;
73100;SDS011;61288;53.446;-2.266;2023-08-07T02:26:11;7.50;;;2.35;;
73100;SDS011;61288;53.446;-2.266;2023-08-07T02:28:37;7.57;;;2.70;;
73100;SDS011;61288;53.446;-2.266;2023-08-07T02:31:04;7.57;;;2.22;;
73100;SDS011;61288;53.446;-2.266;2023-08-07T02:33:29;7.28;;;1.95;;
73100;SDS011;61288;53.446;-2.266;2023-08-07T02:35:56;11.40;;;2.55;;
73100;SDS011;61288;53.446;-2.266;2023-08-07T02:38:22;8.77;;;2.20;;
73100;SDS011;61288;53.446;-2.266;2023-08-07T02:40:49;5.63;;;1.83;;
73100;SDS011;61288;53.446;-2.266;2023-08-07T02:43:14;5.82;;;1.73;;
73100;SDS011;61288;53.446;-2.266;2023-08-07T02:45:40;6.78;;;2.13;;
73100;SDS011;61288;53.446;-2.266;2023-08-07T02:48:06;7.60;;;2.25;;
73100;SDS011;61288;53.446;-2.266;2023-08-07T02:50:31;8.77;;;2.00;;
73100;SDS011;61288;53.446;-2.266;2023-08-07T02:52:58;8.60;;;2.58;;
73100;SDS011;61288;53.446;-2.266;2023-08-07T02:55:25;6.13;;;1.90;;
73100;SDS011;61288;53.446;-2.266;2023-08-07T02:57:51;6.63;;;1.77;;
73100;SDS011;61288;53.446;-2.266;2023-08-07T03:00:16;6.03;;;2.10;;
73100;SDS011;61288;53.446;-2.266;2023-08-07T03:02:42;7.50;;;2.03;;
73100;SDS011;61288;53.446;-2.266;2023-08-07T03:05:08;5.25;;;1.80;;
73100;SDS011;61288;53.446;-2.266;2023-08-07T03:07:33;7.40;;;2.00;;
73100;SDS011;61288;53.446;-2.266;2023-08-07T03:09:59;6.85;;;1.85;;
73100;SDS011;61288;53.446;-2.266;2023-08-07T03:12:25;8.38;;;1.85;;
73100;SDS011;61288;53.446;-2.266;2023-08-07T03:14:51;5.72;;;1.83;;
73100;SDS011;61288;53.446;-2.266;2023-08-07T03:17:16;5.55;;;1.80;;
73100;SDS011;61288;53.446;-2.266;2023-08-07T03:19:42;3.33;;;1.40;;
73100;SDS011;61288;53.446;-2.266;2023-08-07T03:22:09;5.32;;;1.48;;
73100;SDS011;61288;53.446;-2.266;2023-08-07T03:24:34;7.28;;;1.60;;
73100;SDS011;61288;53.446;-2.266;2023-08-07T03:27:00;4.07;;;1.25;;
73100;SDS011;61288;53.446;-2.266;2023-08-07T03:29:26;5.53;;;1.50;;
73100;SDS011;61288;53.446;-2.266;2023-08-07T03:31:51;4.43;;;1.50;;
73100;SDS011;61288;53.446;-2.266;2023-08-07T03:34:17;4.22;;;1.60;;
73100;SDS011;61288;53.446;-2.266;2023-08-07T03:36:42;3.78;;;1.30;;
73100;SDS011;61288;53.446;-2.266;2023-08-07T03:39:08;2.55;;;1.25;;
73100;SDS011;61288;53.446;-2.266;2023-08-07T03:41:35;4.78;;;1.50;;
73100;SDS011;61288;53.446;-2.266;2023-08-07T03:44:03;3.15;;;1.38;;
73100;SDS011;61288;53.446;-2.266;2023-08-07T03:46:29;5.93;;;1.40;;
73100;SDS011;61288;53.446;-2.266;2023-08-07T03:48:55;5.32;;;1.55;;
73100;SDS011;61288;53.446;-2.266;2023-08-07T03:51:21;3.67;;;1.33;;
73100;SDS011;61288;53.446;-2.266;2023-08-07T03:53:46;7.53;;;1.83;;
73100;SDS011;61288;53.446;-2.266;2023-08-07T03:56:12;3.55;;;1.38;;
73100;SDS011;61288;53.446;-2.266;2023-08-07T03:58:37;7.50;;;1.40;;
73100;SDS011;61288;53.446;-2.266;2023-08-07T04:01:04;4.97;;;1.65;;
73100;SDS011;61288;53.446;-2.266;2023-08-07T04:03:29;6.57;;;1.38;;
73100;SDS011;61288;53.446;-2.266;2023-08-07T04:05:55;5.18;;;1.40;;
73100;SDS011;61288;53.446;-2.266;2023-08-07T04:08:21;5.28;;;1.25;;
73100;SDS011;61288;53.446;-2.266;2023-08-07T04:13:26;6.57;;;1.60;;
73100;SDS011;61288;53.446;-2.266;2023-08-07T04:15:52;4.03;;;1.38;;
73100;SDS011;61288;53.446;-2.266;2023-08-07T04:18:17;5.63;;;1.23;;
73100;SDS011;61288;53.446;-2.266;2023-08-07T04:20:48;3.40;;;1.00;;
73100;SDS011;61288;53.446;-2.266;2023-08-07T04:23:17;4.65;;;1.55;;
73100;SDS011;61288;53.446;-2.266;2023-08-07T04:25:44;4.55;;;1.27;;
73100;SDS011;61288;53.446;-2.266;2023-08-07T04:28:10;4.88;;;1.33;;
73100;SDS011;61288;53.446;-2.266;2023-08-07T04:30:35;5.00;;;1.38;;
73100;SDS011;61288;53.446;-2.266;2023-08-07T04:33:01;5.93;;;1.40;;
73100;SDS011;61288;53.446;-2.266;2023-08-07T04:35:27;3.58;;;1.30;;
73100;SDS011;61288;53.446;-2.266;2023-08-07T04:37:53;5.13;;;1.40;;
73100;SDS011;61288;53.446;-2.266;2023-08-07T04:40:18;3.63;;;1.48;;
73100;SDS011;61288;53.446;-2.266;2023-08-07T04:42:44;3.83;;;1.40;;
73100;SDS011;61288;53.446;-2.266;2023-08-07T04:45:10;5.72;;;1.33;;
73100;SDS011;61288;53.446;-2.266;2023-08-07T04:47:36;2.88;;;1.17;;
73100;SDS011;61288;53.446;-2.266;2023-08-07T04:50:01;4.13;;;1.38;;
73100;SDS011;61288;53.446;-2.266;2023-08-07T04:52:27;3.47;;;1.30;;
73100;SDS011;61288;53.446;-2.266;2023-08-07T04:54:53;4.60;;;1.40;;
73100;SDS011;61288;53.446;-2.266;2023-08-07T04:57:19;2.88;;;1.20;;
73100;SDS011;61288;53.446;-2.266;2023-08-07T04:59:46;1.65;;;1.10;;
73100;SDS011;61288;53.446;-2.266;2023-08-07T05:02:12;5.18;;;1.40;;
73100;SDS011;61288;53.446;-2.266;2023-08-07T05:04:37;2.92;;;1.25;;
73100;SDS011;61288;53.446;-2.266;2023-08-07T05:07:03;5.90;;;1.52;;
73100;SDS011;61288;53.446;-2.266;2023-08-07T05:09:29;5.72;;;1.40;;
73100;SDS011;61288;53.446;-2.266;2023-08-07T05:11:54;2.08;;;1.15;;
73100;SDS011;61288;53.446;-2.266;2023-08-07T05:14:20;5.35;;;1.42;;
73100;SDS011;61288;53.446;-2.266;2023-08-07T05:16:46;6.10;;;1.48;;
73100;SDS011;61288;53.446;-2.266;2023-08-07T05:19:11;5.97;;;1.40;;
73100;SDS011;61288;53.446;-2.266;2023-08-07T05:21:37;4.40;;;1.30;;
73100;SDS011;61288;53.446;-2.266;2023-08-07T05:24:02;7.03;;;1.77;;
73100;SDS011;61288;53.446;-2.266;2023-08-07T05:26:28;2.75;;;1.30;;
73100;SDS011;61288;53.446;-2.266;2023-08-07T05:28:55;6.47;;;1.40;;
73100;SDS011;61288;53.446;-2.266;2023-08-07T05:31:23;7.90;;;1.60;;
73100;SDS011;61288;53.446;-2.266;2023-08-07T05:33:49;4.40;;;1.60;;
73100;SDS011;61288;53.446;-2.266;2023-08-07T05:36:15;5.13;;;1.73;;
73100;SDS011;61288;53.446;-2.266;2023-08-07T05:38:40;7.43;;;1.77;;
73100;SDS011;61288;53.446;-2.266;2023-08-07T05:41:06;7.60;;;1.58;;
73100;SDS011;61288;53.446;-2.266;2023-08-07T05:43:31;5.93;;;1.60;;
73100;SDS011;61288;53.446;-2.266;2023-08-07T05:45:57;2.80;;;1.27;;
73100;SDS011;61288;53.446;-2.266;2023-08-07T05:48:22;4.30;;;1.50;;
73100;SDS011;61288;53.446;-2.266;2023-08-07T05:50:48;4.10;;;1.40;;
73100;SDS011;61288;53.446;-2.266;2023-08-07T05:53:13;2.50;;;1.23;;
73100;SDS011;61288;53.446;-2.266;2023-08-07T05:55:39;6.47;;;1.60;;
73100;SDS011;61288;53.446;-2.266;2023-08-07T05:58:08;6.13;;;1.70;;
73100;SDS011;61288;53.446;-2.266;2023-08-07T06:00:33;5.15;;;1.50;;
73100;SDS011;61288;53.446;-2.266;2023-08-07T06:02:59;5.75;;;1.60;;
73100;SDS011;61288;53.446;-2.266;2023-08-07T06:05:25;5.40;;;1.70;;
73100;SDS011;61288;53.446;-2.266;2023-08-07T06:07:51;6.07;;;1.48;;
73100;SDS011;61288;53.446;-2.266;2023-08-07T06:10:16;6.00;;;1.40;;
73100;SDS011;61288;53.446;-2.266;2023-08-07T06:12:42;4.55;;;1.58;;
73100;SDS011;61288;53.446;-2.266;2023-08-07T06:15:07;6.50;;;1.88;;
73100;SDS011;61288;53.446;-2.266;2023-08-07T06:17:34;4.90;;;1.50;;
73100;SDS011;61288;53.446;-2.266;2023-08-07T06:19:59;9.23;;;1.75;;
73100;SDS011;61288;53.446;-2.266;2023-08-07T06:22:25;7.63;;;2.20;;
73100;SDS011;61288;53.446;-2.266;2023-08-07T06:24:50;5.82;;;1.58;;
73100;SDS011;61288;53.446;-2.266;2023-08-07T06:27:16;5.32;;;1.70;;
73100;SDS011;61288;53.446;-2.266;2023-08-07T06:29:42;6.88;;;2.10;;
73100;SDS011;61288;53.446;-2.266;2023-08-07T06:32:07;9.77;;;2.00;;
73100;SDS011;61288;53.446;-2.266;2023-08-07T06:34:35;6.10;;;1.85;;
73100;SDS011;61288;53.446;-2.266;2023-08-07T06:37:02;6.65;;;1.70;;
73100;SDS011;61288;53.446;-2.266;2023-08-07T06:39:28;5.75;;;1.60;;
73100;SDS011;61288;53.446;-2.266;2023-08-07T06:41:54;5.32;;;1.52;;
73100;SDS011;61288;53.446;-2.266;2023-08-07T06:44:20;7.53;;;1.95;;
73100;SDS011;61288;53.446;-2.266;2023-08-07T06:46:46;6.35;;;1.88;;
73100;SDS011;61288;53.446;-2.266;2023-08-07T06:49:11;9.02;;;1.83;;
73100;SDS011;61288;53.446;-2.266;2023-08-07T06:51:37;4.57;;;1.52;;
73100;SDS011;61288;53.446;-2.266;2023-08-07T06:54:02;4.85;;;1.50;;
73100;SDS011;61288;53.446;-2.266;2023-08-07T06:56:29;6.55;;;1.80;;
73100;SDS011;61288;53.446;-2.266;2023-08-07T06:58:55;7.18;;;1.58;;
73100;SDS011;61288;53.446;-2.266;2023-08-07T07:01:20;7.43;;;1.92;;
73100;SDS011;61288;53.446;-2.266;2023-08-07T07:03:46;6.13;;;1.92;;
73100;SDS011;61288;53.446;-2.266;2023-08-07T07:06:12;13.10;;;2.10;;
73100;SDS011;61288;53.446;-2.266;2023-08-07T07:08:38;6.43;;;1.60;;
73100;SDS011;61288;53.446;-2.266;2023-08-07T07:11:03;5.60;;;1.63;;
73100;SDS011;61288;53.446;-2.266;2023-08-07T07:13:29;6.72;;;1.80;;
73100;SDS011;61288;53.446;-2.266;2023-08-07T07:15:55;4.38;;;1.60;;
73100;SDS011;61288;53.446;-2.266;2023-08-07T07:18:21;3.90;;;1.60;;
73100;SDS011;61288;53.446;-2.266;2023-08-07T07:20:46;6.43;;;1.95;;
73100;SDS011;61288;53.446;-2.266;2023-08-07T07:23:12;8.23;;;2.60;;
73100;SDS011;61288;53.446;-2.266;2023-08-07T07:25:38;6.57;;;2.17;;
73100;SDS011;61288;53.446;-2.266;2023-08-07T07:28:03;3.17;;;1.45;;
73100;SDS011;61288;53.446;-2.266;2023-08-07T07:30:29;6.30;;;1.60;;
73100;SDS011;61288;53.446;-2.266;2023-08-07T07:32:54;6.22;;;1.80;;
73100;SDS011;61288;53.446;-2.266;2023-08-07T07:35:20;7.18;;;1.52;;
73100;SDS011;61288;53.446;-2.266;2023-08-07T07:37:45;6.97;;;1.70;;
73100;SDS011;61288;53.446;-2.266;2023-08-07T07:40:12;7.88;;;1.65;;
73100;SDS011;61288;53.446;-2.266;2023-08-07T07:42:38;5.13;;;1.60;;
73100;SDS011;61288;53.446;-2.266;2023-08-07T07:45:03;5.32;;;2.03;;
73100;SDS011;61288;53.446;-2.266;2023-08-07T07:47:29;6.00;;;1.70;;
73100;SDS011;61288;53.446;-2.266;2023-08-07T07:50:04;10.77;;;1.90;;
73100;SDS011;61288;53.446;-2.266;2023-08-07T07:52:33;6.75;;;2.00;;
73100;SDS011;61288;53.446;-2.266;2023-08-07T07:54:59;6.10;;;1.80;;
73100;SDS011;61288;53.446;-2.266;2023-08-07T07:57:25;6.32;;;2.03;;
73100;SDS011;61288;53.446;-2.266;2023-08-07T07:59:52;7.88;;;1.90;;
73100;SDS011;61288;53.446;-2.266;2023-08-07T08:02:17;7.55;;;1.83;;
73100;SDS011;61288;53.446;-2.266;2023-08-07T08:04:43;8.52;;;1.95;;
73100;SDS011;61288;53.446;-2.266;2023-08-07T08:07:08;6.13;;;1.65;;
73100;SDS011;61288;53.446;-2.266;2023-08-07T08:09:34;9.27;;;2.00;;
73100;SDS011;61288;53.446;-2.266;2023-08-07T08:11:59;7.70;;;2.03;;
73100;SDS011;61288;53.446;-2.266;2023-08-07T08:14:26;7.43;;;1.77;;
73100;SDS011;61288;53.446;-2.266;2023-08-07T08:16:51;6.50;;;1.83;;
73100;SDS011;61288;53.446;-2.266;2023-08-07T08:19:17;5.07;;;1.90;;
73100;SDS011;61288;53.446;-2.266;2023-08-07T08:21:42;4.57;;;1.90;;
73100;SDS011;61288;53.446;-2.266;2023-08-07T08:24:09;4.72;;;1.60;;
73100;SDS011;61288;53.446;-2.266;2023-08-07T08:26:34;5.90;;;1.75;;
73100;SDS011;61288;53.446;-2.266;2023-08-07T08:29:00;7.45;;;2.03;;
73100;SDS011;61288;53.446;-2.266;2023-08-07T08:31:26;5.90;;;1.80;;
73100;SDS011;61288;53.446;-2.266;2023-08-07T08:33:51;6.75;;;1.90;;
73100;SDS011;61288;53.446;-2.266;2023-08-07T08:36:17;5.05;;;1.77;;
73100;SDS011;61288;53.446;-2.266;2023-08-07T08:38:43;4.80;;;1.52;;
73100;SDS011;61288;53.446;-2.266;2023-08-07T08:41:10;8.63;;;1.73;;
73100;SDS011;61288;53.446;-2.266;2023-08-07T08:43:36;3.58;;;1.50;;
73100;SDS011;61288;53.446;-2.266;2023-08-07T08:46:04;6.18;;;1.52;;
73100;SDS011;61288;53.446;-2.266;2023-08-07T08:48:30;7.18;;;1.73;;
73100;SDS011;61288;53.446;-2.266;2023-08-07T08:51:01;6.30;;;1.40;;
73100;SDS011;61288;53.446;-2.266;2023-08-07T08:53:30;4.95;;;1.40;;
73100;SDS011;61288;53.446;-2.266;2023-08-07T08:55:57;6.72;;;1.40;;
73100;SDS011;61288;53.446;-2.266;2023-08-07T08:58:22;3.30;;;1.42;;
73100;SDS011;61288;53.446;-2.266;2023-08-07T09:00:48;9.70;;;1.60;;
73100;SDS011;61288;53.446;-2.266;2023-08-07T09:03:15;3.33;;;1.40;;
73100;SDS011;61288;53.446;-2.266;2023-08-07T09:05:44;7.50;;;1.42;;
73100;SDS011;61288;53.446;-2.266;2023-08-07T09:08:12;3.53;;;1.25;;
73100;SDS011;61288;53.446;-2.266;2023-08-07T09:10:38;3.70;;;1.42;;
73100;SDS011;61288;53.446;-2.266;2023-08-07T09:13:05;6.10;;;1.60;;
73100;SDS011;61288;53.446;-2.266;2023-08-07T09:15:36;7.40;;;1.45;;
73100;SDS011;61288;53.446;-2.266;2023-08-07T09:18:05;4.78;;;1.30;;
73100;SDS011;61288;53.446;-2.266;2023-08-07T09:20:33;5.68;;;1.77;;
73100;SDS011;61288;53.446;-2.266;2023-08-07T09:23:00;6.90;;;1.75;;
73100;SDS011;61288;53.446;-2.266;2023-08-07T09:25:26;5.80;;;1.15;;
73100;SDS011;61288;53.446;-2.266;2023-08-07T09:27:57;6.68;;;1.42;;
73100;SDS011;61288;53.446;-2.266;2023-08-07T09:30:26;6.80;;;1.20;;
73100;SDS011;61288;53.446;-2.266;2023-08-07T09:32:58;7.82;;;1.35;;
73100;SDS011;61288;53.446;-2.266;2023-08-07T09:35:25;4.88;;;1.30;;
73100;SDS011;61288;53.446;-2.266;2023-08-07T09:37:53;8.57;;;1.60;;
73100;SDS011;61288;53.446;-2.266;2023-08-07T09:40:19;3.83;;;1.25;;
73100;SDS011;61288;53.446;-2.266;2023-08-07T09:42:45;4.75;;;1.02;;
73100;SDS011;61288;53.446;-2.266;2023-08-07T09:48:03;5.95;;;1.35;;
73100;SDS011;61288;53.446;-2.266;2023-08-07T09:50:31;6.30;;;1.40;;
73100;SDS011;61288;53.446;-2.266;2023-08-07T09:52:58;5.65;;;1.42;;
73100;SDS011;61288;53.446;-2.266;2023-08-07T09:55:24;7.78;;;1.88;;
73100;SDS011;61288;53.446;-2.266;2023-08-07T09:57:51;9.02;;;1.65;;
73100;SDS011;61288;53.446;-2.266;2023-08-07T10:00:17;6.05;;;1.40;;
73100;SDS011;61288;53.446;-2.266;2023-08-07T10:02:47;5.95;;;1.25;;
73100;SDS011;61288;53.446;-2.266;2023-08-07T10:05:13;6.00;;;1.40;;
73100;SDS011;61288;53.446;-2.266;2023-08-07T10:07:39;7.72;;;1.73;;
73100;SDS011;61288;53.446;-2.266;2023-08-07T10:10:06;6.10;;;1.55;;
73100;SDS011;61288;53.446;-2.266;2023-08-07T10:12:33;5.85;;;1.50;;
73100;SDS011;61288;53.446;-2.266;2023-08-07T10:15:02;9.68;;;1.77;;
73100;SDS011;61288;53.446;-2.266;2023-08-07T10:17:28;9.85;;;2.00;;
73100;SDS011;61288;53.446;-2.266;2023-08-07T10:19:54;7.20;;;1.80;;
73100;SDS011;61288;53.446;-2.266;2023-08-07T10:22:20;8.23;;;1.58;;
73100;SDS011;61288;53.446;-2.266;2023-08-07T10:24:51;6.85;;;1.50;;
73100;SDS011;61288;53.446;-2.266;2023-08-07T10:27:18;5.28;;;1.65;;
73100;SDS011;61288;53.446;-2.266;2023-08-07T10:29:46;7.45;;;1.52;;
73100;SDS011;61288;53.446;-2.266;2023-08-07T10:32:15;5.07;;;1.42;;
73100;SDS011;61288;53.446;-2.266;2023-08-07T10:34:50;6.53;;;1.80;;
73100;SDS011;61288;53.446;-2.266;2023-08-07T10:40:08;6.63;;;1.70;;
73100;SDS011;61288;53.446;-2.266;2023-08-07T10:45:20;5.70;;;1.50;;
73100;SDS011;61288;53.446;-2.266;2023-08-07T10:50:35;5.93;;;1.30;;
73100;SDS011;61288;53.446;-2.266;2023-08-07T10:53:31;8.82;;;1.70;;
73100;SDS011;61288;53.446;-2.266;2023-08-07T10:56:02;5.43;;;1.40;;
73100;SDS011;61288;53.446;-2.266;2023-08-07T10:58:35;6.05;;;1.50;;
73100;SDS011;61288;53.446;-2.266;2023-08-07T11:04:07;8.98;;;1.58;;
73100;SDS011;61288;53.446;-2.266;2023-08-07T11:06:35;7.28;;;1.83;;
73100;SDS011;61288;53.446;-2.266;2023-08-07T11:09:03;8.05;;;1.80;;
73100;SDS011;61288;53.446;-2.266;2023-08-07T11:11:37;6.13;;;1.80;;
73100;SDS011;61288;53.446;-2.266;2023-08-07T11:14:08;7.57;;;1.90;;
73100;SDS011;61288;53.446;-2.266;2023-08-07T11:16:35;5.05;;;1.60;;
73100;SDS011;61288;53.446;-2.266;2023-08-07T11:19:02;7.10;;;1.75;;
73100;SDS011;61288;53.446;-2.266;2023-08-07T11:21:32;8.48;;;2.03;;
73100;SDS011;61288;53.446;-2.266;2023-08-07T11:23:58;7.70;;;1.80;;
73100;SDS011;61288;53.446;-2.266;2023-08-07T11:26:23;8.98;;;1.80;;
73100;SDS011;61288;53.446;-2.266;2023-08-07T11:28:51;8.40;;;1.80;;
73100;SDS011;61288;53.446;-2.266;2023-08-07T11:31:17;8.25;;;2.00;;
73100;SDS011;61288;53.446;-2.266;2023-08-07T11:33:44;6.40;;;1.33;;
73100;SDS011;61288;53.446;-2.266;2023-08-07T11:36:13;6.47;;;1.40;;
73100;SDS011;61288;53.446;-2.266;2023-08-07T11:38:40;7.38;;;1.60;;
73100;SDS011;61288;53.446;-2.266;2023-08-07T11:41:10;6.80;;;1.63;;
73100;SDS011;61288;53.446;-2.266;2023-08-07T11:43:37;9.63;;;1.83;;
73100;SDS011;61288;53.446;-2.266;2023-08-07T11:46:05;7.60;;;1.83;;
73100;SDS011;61288;53.446;-2.266;2023-08-07T11:48:34;6.55;;;1.67;;
73100;SDS011;61288;53.446;-2.266;2023-08-07T11:51:00;6.63;;;1.42;;
73100;SDS011;61288;53.446;-2.266;2023-08-07T11:53:30;10.70;;;1.80;;
73100;SDS011;61288;53.446;-2.266;2023-08-07T11:56:02;9.30;;;1.55;;
73100;SDS011;61288;53.446;-2.266;2023-08-07T11:58:34;7.13;;;1.45;;
73100;SDS011;61288;53.446;-2.266;2023-08-07T12:01:11;4.30;;;1.38;;
73100;SDS011;61288;53.446;-2.266;2023-08-07T12:03:41;6.53;;;1.58;;
73100;SDS011;61288;53.446;-2.266;2023-08-07T12:06:08;8.10;;;1.50;;
73100;SDS011;61288;53.446;-2.266;2023-08-07T12:08:39;3.72;;;0.98;;
73100;SDS011;61288;53.446;-2.266;2023-08-07T12:11:08;7.35;;;1.55;;
73100;SDS011;61288;53.446;-2.266;2023-08-07T12:13:38;10.52;;;1.60;;
73100;SDS011;61288;53.446;-2.266;2023-08-07T12:16:05;7.53;;;1.45;;
73100;SDS011;61288;53.446;-2.266;2023-08-07T12:18:32;5.00;;;1.40;;
73100;SDS011;61288;53.446;-2.266;2023-08-07T12:21:04;5.05;;;1.20;;
73100;SDS011;61288;53.446;-2.266;2023-08-07T12:23:33;7.97;;;1.50;;
73100;SDS011;61288;53.446;-2.266;2023-08-07T12:25:59;8.27;;;2.13;;
73100;SDS011;61288;53.446;-2.266;2023-08-07T12:28:25;5.00;;;1.30;;
73100;SDS011;61288;53.446;-2.266;2023-08-07T12:30:51;6.03;;;1.50;;
73100;SDS011;61288;53.446;-2.266;2023-08-07T12:33:17;4.70;;;1.10;;
73100;SDS011;61288;53.446;-2.266;2023-08-07T12:35:43;8.98;;;1.20;;
73100;SDS011;61288;53.446;-2.266;2023-08-07T12:38:10;4.82;;;1.30;;
73100;SDS011;61288;53.446;-2.266;2023-08-07T12:40:36;5.47;;;1.40;;
73100;SDS011;61288;53.446;-2.266;2023-08-07T12:43:03;6.82;;;1.58;;
73100;SDS011;61288;53.446;-2.266;2023-08-07T12:45:31;8.38;;;1.50;;
73100;SDS011;61288;53.446;-2.266;2023-08-07T12:47:57;3.20;;;1.10;;
73100;SDS011;61288;53.446;-2.266;2023-08-07T12:50:23;7.43;;;1.27;;
73100;SDS011;61288;53.446;-2.266;2023-08-07T12:52:49;4.22;;;1.50;;
73100;SDS011;61288;53.446;-2.266;2023-08-07T12:55:14;8.10;;;1.45;;
73100;SDS011;61288;53.446;-2.266;2023-08-07T12:57:43;4.38;;;1.30;;
73100;SDS011;61288;53.446;-2.266;2023-08-07T13:00:09;3.13;;;1.13;;
73100;SDS011;61288;53.446;-2.266;2023-08-07T13:05:08;7.82;;;1.40;;
73100;SDS011;61288;53.446;-2.266;2023-08-07T13:07:34;4.35;;;1.20;;
73100;SDS011;61288;53.446;-2.266;2023-08-07T13:10:00;4.35;;;1.17;;
73100;SDS011;61288;53.446;-2.266;2023-08-07T13:12:25;4.63;;;1.08;;
73100;SDS011;61288;53.446;-2.266;2023-08-07T13:14:51;3.28;;;1.00;;
73100;SDS011;61288;53.446;-2.266;2023-08-07T13:17:16;3.75;;;1.15;;
73100;SDS011;61288;53.446;-2.266;2023-08-07T13:19:42;2.28;;;0.90;;
73100;SDS011;61288;53.446;-2.266;2023-08-07T13:22:07;2.78;;;0.95;;
73100;SDS011;61288;53.446;-2.266;2023-08-07T13:24:33;2.30;;;1.10;;
73100;SDS011;61288;53.446;-2.266;2023-08-07T13:26:58;3.38;;;0.80;;
73100;SDS011;61288;53.446;-2.266;2023-08-07T13:29:24;2.33;;;1.02;;
73100;SDS011;61288;53.446;-2.266;2023-08-07T13:31:51;4.50;;;1.00;;
73100;SDS011;61288;53.446;-2.266;2023-08-07T13:34:16;4.15;;;1.10;;
73100;SDS011;61288;53.446;-2.266;2023-08-07T13:36:42;4.45;;;1.08;;
73100;SDS011;61288;53.446;-2.266;2023-08-07T13:39:07;3.10;;;1.00;;
73100;SDS011;61288;53.446;-2.266;2023-08-07T13:41:34;3.63;;;1.13;;
73100;SDS011;61288;53.446;-2.266;2023-08-07T13:44:02;3.95;;;1.10;;
73100;SDS011;61288;53.446;-2.266;2023-08-07T13:46:28;2.15;;;0.90;;
73100;SDS011;61288;53.446;-2.266;2023-08-07T13:48:53;2.40;;;0.90;;
73100;SDS011;61288;53.446;-2.266;2023-08-07T13:51:19;2.83;;;0.93;;
73100;SDS011;61288;53.446;-2.266;2023-08-07T13:53:44;1.23;;;0.52;;
73100;SDS011;61288;53.446;-2.266;2023-08-07T13:56:10;1.58;;;0.77;;
73100;SDS011;61288;53.446;-2.266;2023-08-07T13:58:38;4.72;;;1.13;;
73100;SDS011;61288;53.446;-2.266;2023-08-07T14:01:05;2.22;;;1.00;;
73100;SDS011;61288;53.446;-2.266;2023-08-07T14:03:31;4.85;;;1.45;;
73100;SDS011;61288;53.446;-2.266;2023-08-07T14:05:56;4.10;;;1.10;;
73100;SDS011;61288;53.446;-2.266;2023-08-07T14:08:22;3.92;;;0.90;;
73100;SDS011;61288;53.446;-2.266;2023-08-07T14:10:48;2.80;;;1.00;;
73100;SDS011;61288;53.446;-2.266;2023-08-07T14:13:14;3.22;;;0.80;;
73100;SDS011;61288;53.446;-2.266;2023-08-07T14:15:40;3.08;;;1.02;;
73100;SDS011;61288;53.446;-2.266;2023-08-07T14:18:06;6.97;;;0.95;;
73100;SDS011;61288;53.446;-2.266;2023-08-07T14:20:31;2.30;;;0.95;;
73100;SDS011;61288;53.446;-2.266;2023-08-07T14:22:57;3.75;;;0.90;;
73100;SDS011;61288;53.446;-2.266;2023-08-07T14:25:24;3.58;;;0.82;;
73100;SDS011;61288;53.446;-2.266;2023-08-07T14:27:49;2.85;;;1.00;;
73100;SDS011;61288;53.446;-2.266;2023-08-07T14:30:15;3.55;;;0.85;;
73100;SDS011;61288;53.446;-2.266;2023-08-07T14:32:41;4.95;;;0.98;;
73100;SDS011;61288;53.446;-2.266;2023-08-07T14:35:08;3.13;;;0.93;;
73100;SDS011;61288;53.446;-2.266;2023-08-07T14:37:34;3.28;;;0.95;;
73100;SDS011;61288;53.446;-2.266;2023-08-07T14:39:59;4.18;;;0.98;;
73100;SDS011;61288;53.446;-2.266;2023-08-07T14:42:26;4.95;;;0.95;;
73100;SDS011;61288;53.446;-2.266;2023-08-07T14:44:52;3.30;;;1.00;;
73100;SDS011;61288;53.446;-2.266;2023-08-07T14:47:18;5.03;;;1.00;;
73100;SDS011;61288;53.446;-2.266;2023-08-07T14:49:43;2.28;;;1.10;;
73100;SDS011;61288;53.446;-2.266;2023-08-07T14:52:10;1.67;;;0.88;;
73100;SDS011;61288;53.446;-2.266;2023-08-07T14:54:36;2.25;;;0.88;;
73100;SDS011;61288;53.446;-2.266;2023-08-07T14:57:04;4.28;;;1.08;;
73100;SDS011;61288;53.446;-2.266;2023-08-07T14:59:30;4.45;;;0.98;;